createdAt,value
2022-10-04T00:01:30.200Z,60.06
2022-10-04T00:04:08.163Z,60.05
2022-10-04T00:06:37.002Z,59.90
2022-10-04T00:09:09.266Z,60.51
2022-10-04T00:11:44.463Z,60.65
2022-10-04T00:14:18.608Z,60.54
2022-10-04T00:16:47.075Z,60.11
2022-10-04T00:19:39.282Z,60.24
2022-10-04T00:22:22.636Z,59.93
2022-10-04T00:25:21.920Z,61.06
2022-10-04T00:28:28.779Z,60.51
2022-10-04T00:31:21.488Z,60.32
2022-10-04T00:33:51.936Z,59.65
2022-10-04T00:36:49.278Z,59.90
2022-10-04T00:39:27.254Z,59.72
2022-10-04T00:42:06.472Z,59.04
2022-10-04T00:44:44.683Z,59.28
2022-10-04T00:47:25.616Z,60.36
2022-10-04T00:49:57.930Z,60.13
2022-10-04T00:52:30.419Z,60.53
2022-10-04T00:55:01.355Z,60.29
2022-10-04T00:57:32.692Z,61.24
2022-10-04T01:00:06.371Z,60.20
2022-10-04T01:02:39.768Z,60.82
2022-10-04T01:05:10.700Z,61.07
2022-10-04T01:07:42.712Z,61.17
2022-10-04T01:10:15.741Z,61.02
2022-10-04T01:12:51.317Z,61.15
2022-10-04T01:15:32.106Z,61.14
2022-10-04T01:18:15.657Z,61.83
2022-10-04T01:20:54.911Z,61.96
2022-10-04T01:23:40.715Z,61.90
2022-10-04T01:26:37.892Z,62.06
2022-10-04T01:29:11.095Z,61.86
2022-10-04T01:31:42.010Z,61.89
2022-10-04T01:34:13.315Z,61.89
2022-10-04T01:36:42.071Z,61.62
2022-10-04T01:39:11.817Z,61.46
2022-10-04T01:41:47.463Z,61.91
2022-10-04T01:44:24.271Z,61.46
2022-10-04T01:46:56.736Z,61.88
2022-10-04T01:49:30.335Z,61.80
2022-10-04T01:52:03.215Z,61.70
2022-10-04T01:54:38.533Z,62.33
2022-10-04T01:57:13.709Z,62.09
2022-10-04T01:59:46.348Z,62.13
2022-10-04T02:02:22.480Z,62.85
2022-10-04T02:04:55.739Z,62.80
2022-10-04T02:07:26.562Z,62.82
2022-10-04T02:10:00.764Z,62.34
2022-10-04T02:12:31.709Z,62.18
2022-10-04T02:15:02.765Z,62.19
2022-10-04T02:17:33.456Z,62.24
2022-10-04T02:20:03.687Z,62.59
2022-10-04T02:22:32.273Z,62.83
2022-10-04T02:25:02.078Z,63.72
2022-10-04T02:27:31.690Z,63.10
2022-10-04T02:30:04.230Z,63.22
2022-10-04T02:32:51.044Z,62.33
2022-10-04T02:35:22.152Z,62.06
2022-10-04T02:37:55.813Z,62.38
2022-10-04T02:40:31.316Z,62.87
2022-10-04T02:43:02.987Z,62.96
2022-10-04T02:45:39.495Z,63.75
2022-10-04T02:48:20.526Z,63.82
2022-10-04T02:50:53.954Z,64.14
2022-10-04T02:53:27.772Z,63.88
2022-10-04T02:55:58.590Z,63.85
2022-10-04T02:58:28.317Z,63.75
2022-10-04T03:00:59.621Z,63.53
2022-10-04T03:03:30.133Z,63.48
2022-10-04T03:06:05.783Z,63.70
2022-10-04T03:08:37.196Z,63.20
2022-10-04T03:11:07.437Z,63.64
2022-10-04T03:13:37.252Z,62.64
2022-10-04T03:16:06.238Z,62.12
2022-10-04T03:18:36.919Z,61.84
2022-10-04T03:21:08.148Z,61.91
2022-10-04T03:23:37.167Z,61.77
2022-10-04T03:26:21.211Z,62.53
2022-10-04T03:28:49.952Z,62.70
2022-10-04T03:31:20.065Z,62.51
2022-10-04T03:33:48.850Z,62.61
2022-10-04T03:36:20.198Z,63.15
2022-10-04T03:38:50.619Z,62.51
2022-10-04T03:41:20.729Z,62.03
2022-10-04T03:43:51.415Z,62.02
2022-10-04T03:46:22.881Z,62.10
2022-10-04T03:48:53.836Z,62.03
2022-10-04T03:51:24.490Z,62.15
2022-10-04T03:53:54.888Z,61.64
2022-10-04T03:56:28.590Z,61.43
2022-10-04T03:58:57.348Z,61.62
2022-10-04T04:01:41.851Z,61.85
2022-10-04T04:04:23.353Z,61.83
2022-10-04T04:06:57.666Z,61.61
2022-10-04T04:09:33.952Z,62.46
2022-10-04T04:12:07.906Z,62.16
2022-10-04T04:14:36.156Z,62.56
2022-10-04T04:17:30.501Z,62.24
2022-10-04T04:20:06.322Z,62.31
2022-10-04T04:22:37.830Z,61.98
2022-10-04T04:25:13.047Z,61.96
2022-10-04T04:27:44.933Z,62.20
2022-10-04T04:30:18.166Z,61.32
2022-10-04T04:32:51.266Z,61.48
2022-10-04T04:35:25.162Z,61.07
2022-10-04T04:38:18.674Z,60.49
2022-10-04T04:40:47.305Z,60.64
2022-10-04T04:43:20.454Z,60.20
2022-10-04T04:46:08.604Z,60.13
2022-10-04T04:48:39.216Z,59.41
2022-10-04T04:51:07.716Z,59.67
2022-10-04T04:53:36.080Z,59.67
2022-10-04T04:56:10.425Z,59.56
2022-10-04T04:58:44.234Z,59.52
2022-10-04T05:01:20.068Z,59.26
2022-10-04T05:04:25.467Z,59.81
2022-10-04T05:07:05.454Z,59.56
2022-10-04T05:09:35.116Z,59.44
2022-10-04T05:12:11.510Z,59.25
2022-10-04T05:14:46.510Z,58.57
2022-10-04T05:17:20.313Z,58.88
2022-10-04T05:19:48.451Z,58.13
2022-10-04T05:22:21.576Z,58.39
2022-10-04T05:24:53.790Z,57.43
2022-10-04T05:27:31.835Z,57.67
2022-10-04T05:30:06.453Z,57.53
2022-10-04T05:32:45.517Z,57.35
2022-10-04T05:35:19.596Z,57.02
2022-10-04T05:37:59.013Z,57.10
2022-10-04T05:40:37.119Z,57.11
2022-10-04T05:43:23.034Z,57.24
2022-10-04T05:46:13.581Z,57.24
2022-10-04T05:48:44.470Z,57.37
2022-10-04T05:51:20.877Z,57.29
2022-10-04T05:53:50.124Z,57.44
2022-10-04T05:56:56.929Z,57.42
2022-10-04T05:59:38.543Z,57.55
2022-10-04T06:02:23.935Z,57.49
2022-10-04T06:05:09.553Z,58.00
2022-10-04T06:07:42.472Z,57.26
2022-10-04T06:10:40.433Z,57.61
2022-10-04T06:13:18.127Z,57.32
2022-10-04T06:15:58.760Z,56.85
2022-10-04T06:18:45.585Z,57.23
2022-10-04T06:21:25.558Z,56.73
2022-10-04T06:24:00.370Z,56.89
2022-10-04T06:26:34.374Z,56.66
2022-10-04T06:29:06.221Z,56.81
2022-10-04T06:31:48.232Z,57.15
2022-10-04T06:35:03.634Z,56.34
2022-10-04T06:37:55.391Z,57.04
2022-10-04T06:40:46.317Z,57.00
2022-10-04T06:43:31.698Z,57.52
2022-10-04T06:46:13.105Z,57.21
2022-10-04T06:49:00.036Z,56.64
2022-10-04T06:51:46.864Z,56.43
2022-10-04T06:54:32.442Z,57.05
2022-10-04T06:57:20.061Z,56.98
2022-10-04T07:00:01.857Z,57.11
2022-10-04T07:02:35.546Z,56.29
2022-10-04T07:05:13.966Z,56.22
2022-10-04T07:07:48.725Z,56.00
2022-10-04T07:10:27.220Z,55.26
2022-10-04T07:13:11.912Z,55.52
2022-10-04T07:15:48.628Z,55.26
2022-10-04T07:18:24.315Z,54.78
2022-10-04T07:21:00.456Z,54.42
2022-10-04T07:23:33.825Z,54.54
2022-10-04T07:26:06.990Z,53.96
2022-10-04T07:28:59.489Z,54.41
2022-10-04T07:31:29.915Z,54.49
2022-10-04T07:34:02.409Z,54.25
2022-10-04T07:36:40.191Z,53.58
2022-10-04T07:39:15.527Z,53.71
2022-10-04T07:41:51.278Z,53.30
2022-10-04T07:44:27.949Z,52.78
2022-10-04T07:47:02.208Z,52.52
2022-10-04T07:49:37.763Z,52.01
2022-10-04T07:52:49.061Z,52.04
2022-10-04T07:55:28.760Z,51.40
2022-10-04T07:58:14.945Z,50.05
2022-10-04T08:00:50.602Z,49.74
2022-10-04T08:03:37.947Z,49.82
2022-10-04T08:06:13.884Z,49.89
2022-10-04T08:09:12.309Z,49.31
2022-10-04T08:11:52.217Z,49.20
2022-10-04T08:14:28.748Z,49.21
2022-10-04T08:17:14.439Z,48.38
2022-10-04T08:19:57.239Z,47.51
2022-10-04T08:22:40.262Z,46.42
2022-10-04T08:25:17.751Z,47.04
2022-10-04T08:28:17.176Z,46.61
2022-10-04T08:31:04.722Z,46.54
2022-10-04T08:33:52.831Z,46.40
2022-10-04T08:36:32.577Z,45.59
2022-10-04T08:39:01.958Z,45.80
2022-10-04T08:42:14.944Z,45.05
2022-10-04T08:45:24.462Z,44.44
2022-10-04T08:48:40.399Z,44.34
2022-10-04T08:52:05.133Z,44.75
2022-10-04T08:54:57.368Z,44.38
2022-10-04T08:57:59.725Z,44.00
2022-10-04T09:00:36.559Z,43.79
2022-10-04T09:03:37.026Z,43.33
2022-10-04T09:06:38.729Z,43.78
2022-10-04T09:09:44.596Z,42.70
2022-10-04T09:12:47.589Z,42.86
2022-10-04T09:15:27.302Z,43.63
2022-10-04T09:18:04.887Z,43.60
2022-10-04T09:20:48.994Z,43.46
2022-10-04T09:23:57.959Z,42.34
2022-10-04T09:26:35.437Z,42.02
2022-10-04T09:29:32.155Z,43.22
2022-10-04T09:32:41.873Z,41.92
2022-10-04T09:35:56.064Z,41.59
2022-10-04T09:39:17.886Z,40.43
2022-10-04T09:42:04.312Z,39.98
2022-10-04T09:45:02.800Z,39.83
2022-10-04T09:47:45.772Z,38.72
2022-10-04T09:50:58.499Z,38.46
2022-10-04T09:53:53.007Z,38.79
2022-10-04T09:56:52.174Z,39.35
2022-10-04T09:59:50.565Z,40.10
2022-10-04T10:02:56.447Z,40.24
2022-10-04T10:05:43.159Z,40.11
2022-10-04T10:08:23.871Z,40.53
2022-10-04T10:11:22.458Z,40.69
2022-10-04T10:14:37.097Z,41.77
2022-10-04T10:17:16.222Z,41.63
2022-10-04T10:20:16.907Z,42.06
2022-10-04T10:23:26.645Z,40.72
2022-10-04T10:26:15.507Z,40.07
2022-10-04T10:29:18.162Z,39.88
2022-10-04T10:32:00.787Z,39.81
2022-10-04T10:34:52.376Z,39.71
2022-10-04T10:37:36.690Z,39.04
2022-10-04T10:40:32.754Z,39.26
2022-10-04T10:43:15.471Z,39.78
2022-10-04T10:46:05.799Z,38.59
2022-10-04T10:48:54.992Z,38.90
2022-10-04T10:51:59.477Z,38.47
2022-10-04T10:55:00.340Z,38.53
2022-10-04T10:57:57.076Z,38.19
2022-10-04T11:00:26.337Z,38.40
2022-10-04T11:03:56.810Z,38.95
2022-10-04T11:06:48.562Z,39.05
2022-10-04T11:09:30.825Z,38.39
2022-10-04T11:12:26.978Z,38.75
2022-10-04T11:15:38.664Z,39.08
2022-10-04T11:18:30.780Z,39.78
2022-10-04T11:21:25.849Z,38.65
2022-10-04T11:24:22.928Z,37.94
2022-10-04T11:27:14.345Z,38.80
2022-10-04T11:30:11.610Z,39.83
2022-10-04T11:33:17.351Z,40.34
2022-10-04T11:36:08.771Z,39.96
2022-10-04T11:39:02.668Z,39.49
2022-10-04T11:41:47.746Z,39.53
2022-10-04T11:44:45.459Z,39.36
2022-10-04T11:47:27.178Z,38.97
2022-10-04T11:50:09.056Z,39.57
2022-10-04T11:53:04.839Z,39.50
2022-10-04T11:56:05.858Z,39.48
2022-10-04T11:58:49.728Z,39.54
2022-10-04T12:01:41.097Z,39.95
2022-10-04T12:04:41.013Z,40.37
2022-10-04T12:07:35.385Z,40.21
2022-10-04T12:10:19.198Z,41.20
2022-10-04T12:13:28.877Z,40.95
2022-10-04T12:16:34.044Z,41.05
2022-10-04T12:19:30.569Z,40.80
2022-10-04T12:22:30.308Z,41.52
2022-10-04T12:25:28.199Z,41.59
2022-10-04T12:28:22.587Z,41.41
2022-10-04T12:31:11.531Z,40.71
2022-10-04T12:33:49.164Z,40.28
2022-10-04T12:36:35.574Z,39.58
2022-10-04T12:39:20.684Z,39.42
2022-10-04T12:42:00.259Z,39.12
2022-10-04T12:44:41.983Z,39.18
2022-10-04T12:47:45.082Z,38.56
2022-10-04T12:50:26.308Z,38.32
2022-10-04T12:53:05.279Z,38.50
2022-10-04T12:55:53.661Z,38.59
2022-10-04T12:58:30.625Z,38.73
2022-10-04T13:01:12.392Z,38.72
2022-10-04T13:04:00.847Z,38.76
2022-10-04T13:06:38.895Z,39.18
2022-10-04T13:09:17.072Z,39.12
2022-10-04T13:12:03.928Z,39.71
2022-10-04T13:15:03.309Z,39.24
2022-10-04T13:17:43.576Z,39.45
2022-10-04T13:20:32.837Z,39.19
2022-10-04T13:23:09.557Z,39.43
2022-10-04T13:26:06.657Z,38.73
2022-10-04T13:28:43.789Z,39.11
2022-10-04T13:31:18.083Z,39.01
2022-10-04T13:33:54.681Z,38.78
2022-10-04T13:36:30.629Z,39.46
2022-10-04T13:39:25.801Z,39.36
2022-10-04T13:42:12.471Z,39.25
2022-10-04T13:45:07.052Z,39.30
2022-10-04T13:48:14.453Z,39.78
2022-10-04T13:51:00.169Z,39.14
2022-10-04T13:53:57.064Z,39.08
2022-10-04T13:56:55.397Z,39.93
2022-10-04T13:59:35.059Z,39.28
2022-10-04T14:02:41.935Z,39.42
2022-10-04T14:05:42.707Z,40.05
2022-10-04T14:08:42.378Z,39.39
2022-10-04T14:11:36.005Z,38.79
2022-10-04T14:14:34.412Z,39.19
2022-10-04T14:17:33.331Z,39.14
2022-10-04T14:20:39.411Z,39.94
2022-10-04T14:23:40.527Z,41.39
2022-10-04T14:26:46.640Z,46.35
2022-10-04T14:29:34.443Z,48.70
2022-10-04T14:32:42.700Z,53.34
2022-10-04T14:35:16.780Z,50.24
2022-10-04T14:38:29.235Z,53.44
2022-10-04T14:41:41.372Z,54.80
2022-10-04T14:44:46.700Z,56.96
2022-10-04T14:47:32.073Z,57.02
2022-10-04T14:50:19.140Z,55.68
2022-10-04T14:53:00.615Z,53.94
2022-10-04T14:55:56.283Z,53.06
2022-10-04T14:58:33.016Z,52.24
2022-10-04T15:01:16.007Z,52.88
2022-10-04T15:03:56.220Z,52.71
2022-10-04T15:06:36.589Z,49.91
2022-10-04T15:09:31.048Z,46.56
2022-10-04T15:15:23.771Z,53.54
2022-10-04T15:18:03.451Z,52.97
2022-10-04T15:20:37.976Z,55.04
2022-10-04T15:23:16.102Z,53.02
2022-10-04T15:25:47.509Z,55.31
2022-10-04T15:28:53.017Z,55.57
2022-10-04T15:31:27.958Z,56.31
2022-10-04T15:34:07.483Z,57.88
2022-10-04T15:36:51.889Z,57.38
2022-10-04T15:39:45.767Z,59.16
2022-10-04T15:42:17.497Z,48.38
2022-10-04T15:45:17.111Z,48.98
2022-10-04T15:48:11.253Z,48.49
2022-10-04T15:50:55.498Z,49.54
2022-10-04T15:53:44.549Z,49.08
2022-10-04T15:56:34.358Z,49.49
2022-10-04T15:59:30.141Z,50.19
2022-10-04T16:02:24.245Z,51.32
2022-10-04T16:05:07.192Z,51.58
2022-10-04T16:08:07.730Z,51.71
2022-10-04T16:11:08.369Z,51.95
2022-10-04T16:13:57.315Z,51.20
2022-10-04T16:17:02.370Z,50.31
2022-10-04T16:19:48.041Z,50.01
2022-10-04T16:22:19.837Z,50.11
2022-10-04T16:24:51.476Z,50.28
2022-10-04T16:27:39.070Z,50.22
2022-10-04T16:30:26.547Z,50.54
2022-10-04T16:33:06.606Z,50.63
2022-10-04T16:35:40.437Z,52.13
2022-10-04T16:38:23.383Z,53.25
2022-10-04T16:41:09.383Z,53.11
2022-10-04T16:43:41.187Z,54.29
2022-10-04T16:46:20.033Z,53.70
2022-10-04T16:48:53.797Z,54.32
2022-10-04T16:51:57.139Z,54.38
2022-10-04T16:54:43.177Z,53.27
2022-10-04T16:57:19.732Z,52.94
2022-10-04T16:59:57.106Z,52.75
2022-10-04T17:02:48.183Z,52.61
2022-10-04T17:05:48.545Z,54.01
2022-10-04T17:08:53.885Z,54.83
2022-10-04T17:12:01.511Z,54.57
2022-10-04T17:15:09.314Z,54.46
2022-10-04T17:17:47.117Z,54.40
2022-10-04T17:20:29.578Z,53.84
2022-10-04T17:23:15.479Z,53.53
2022-10-04T17:25:50.924Z,53.57
2022-10-04T17:28:30.776Z,53.21
2022-10-04T17:31:10.391Z,53.47
2022-10-04T17:33:52.489Z,52.67
2022-10-04T17:36:43.367Z,52.68
2022-10-04T17:39:35.387Z,53.20
2022-10-04T17:42:27.958Z,52.88
2022-10-04T17:45:18.735Z,52.36
2022-10-04T17:48:15.468Z,52.26
2022-10-04T17:51:09.350Z,52.04
2022-10-04T17:53:58.906Z,51.65
2022-10-04T17:56:32.396Z,51.24
2022-10-04T17:59:06.371Z,51.79
2022-10-04T18:01:42.058Z,51.41
2022-10-04T18:04:18.366Z,50.84
2022-10-04T18:06:53.562Z,51.18
2022-10-04T18:09:27.173Z,51.05
2022-10-04T18:11:58.210Z,51.04
2022-10-04T18:14:53.359Z,50.94
2022-10-04T18:17:33.201Z,50.31
2022-10-04T18:20:27.946Z,50.28
2022-10-04T18:23:01.355Z,50.35
2022-10-04T18:25:33.992Z,51.45
2022-10-04T18:28:06.548Z,50.98
2022-10-04T18:30:36.124Z,50.84
2022-10-04T18:33:16.385Z,51.04
2022-10-04T18:35:53.401Z,50.96
2022-10-04T18:38:24.963Z,50.97
2022-10-04T18:40:57.585Z,50.42
2022-10-04T18:43:33.295Z,50.73
2022-10-04T18:46:05.112Z,51.17
2022-10-04T18:48:47.508Z,51.34
2022-10-04T18:51:27.296Z,51.66
2022-10-04T18:54:24.432Z,51.99
2022-10-04T18:57:04.172Z,51.83
2022-10-04T18:59:58.463Z,51.47
2022-10-04T19:02:35.193Z,51.26
2022-10-04T19:05:15.451Z,51.36
2022-10-04T19:07:51.077Z,51.51
2022-10-04T19:10:33.608Z,52.03
2022-10-04T19:13:14.022Z,51.96
2022-10-04T19:15:48.043Z,52.04
2022-10-04T19:18:36.997Z,51.99
2022-10-04T19:21:14.152Z,52.58
2022-10-04T19:24:08.770Z,52.84
2022-10-04T19:26:40.734Z,52.92
2022-10-04T19:29:25.611Z,52.77
2022-10-04T19:31:59.180Z,53.12
2022-10-04T19:34:39.708Z,53.83
2022-10-04T19:37:14.614Z,53.41
2022-10-04T19:39:54.841Z,53.42
2022-10-04T19:42:35.123Z,53.69
2022-10-04T19:45:19.039Z,53.99
2022-10-04T19:47:51.444Z,53.30
2022-10-04T19:50:23.819Z,53.17
2022-10-04T19:52:55.812Z,52.97
2022-10-04T19:55:32.440Z,53.42
2022-10-04T19:58:09.713Z,53.71
2022-10-04T20:00:37.802Z,53.03
2022-10-04T20:03:13.029Z,53.20
2022-10-04T20:05:46.074Z,53.22
2022-10-04T20:08:17.306Z,53.34
2022-10-04T20:10:45.371Z,53.21
2022-10-04T20:13:23.727Z,53.75
2022-10-04T20:15:54.058Z,53.57
2022-10-04T20:19:01.035Z,53.09
2022-10-04T20:21:32.412Z,53.28
2022-10-04T20:24:02.528Z,53.16
2022-10-04T20:26:56.562Z,53.34
2022-10-04T20:30:07.659Z,53.15
2022-10-04T20:32:58.603Z,53.35
2022-10-04T20:36:12.285Z,53.15
2022-10-04T20:39:03.185Z,52.75
2022-10-04T20:42:02.450Z,52.80
2022-10-04T20:44:54.352Z,53.31
2022-10-04T20:47:34.995Z,54.21
2022-10-04T20:50:06.845Z,53.93
2022-10-04T20:52:37.461Z,54.29
2022-10-04T20:55:20.297Z,54.36
2022-10-04T20:57:48.319Z,53.69
2022-10-04T21:00:25.727Z,53.72
2022-10-04T21:03:15.408Z,53.94
2022-10-04T21:05:43.645Z,53.93
2022-10-04T21:08:24.198Z,53.86
2022-10-04T21:11:09.727Z,53.68
2022-10-04T21:13:49.710Z,53.96
2022-10-04T21:16:38.190Z,54.43
2022-10-04T21:19:46.026Z,54.65
2022-10-04T21:22:34.468Z,54.58
2022-10-04T21:25:03.602Z,54.23
2022-10-04T21:27:35.158Z,54.15
2022-10-04T21:30:05.129Z,54.09
2022-10-04T21:32:35.699Z,53.86
2022-10-04T21:35:04.160Z,53.62
2022-10-04T21:37:32.525Z,54.63
2022-10-04T21:40:00.483Z,54.17
2022-10-04T21:42:28.722Z,54.56
2022-10-04T21:44:58.078Z,54.23
2022-10-04T21:47:26.181Z,54.09
2022-10-04T21:49:55.132Z,54.39
2022-10-04T21:52:23.625Z,54.11
2022-10-04T21:54:51.737Z,53.77
2022-10-04T21:57:19.820Z,54.08
2022-10-04T21:59:48.143Z,54.04
2022-10-04T22:02:17.684Z,53.90
2022-10-04T22:04:45.797Z,54.38
2022-10-04T22:07:14.104Z,54.01
2022-10-04T22:09:42.086Z,54.97
2022-10-04T22:12:10.102Z,55.09
2022-10-04T22:14:38.110Z,54.84
2022-10-04T22:17:06.287Z,54.98
2022-10-04T22:19:35.803Z,55.74
2022-10-04T22:22:03.985Z,55.71
2022-10-04T22:24:32.348Z,55.81
2022-10-04T22:27:00.476Z,56.33
2022-10-04T22:29:31.060Z,56.49
2022-10-04T22:31:59.206Z,56.62
2022-10-04T22:34:27.273Z,56.57
2022-10-04T22:36:56.643Z,56.49
2022-10-04T22:39:27.867Z,56.39
2022-10-04T22:41:59.421Z,56.97
2022-10-04T22:44:31.085Z,57.12
2022-10-04T22:47:01.224Z,56.30
2022-10-04T22:49:32.741Z,56.75
2022-10-04T22:52:05.326Z,56.21
2022-10-04T22:54:35.665Z,57.07
2022-10-04T22:57:03.782Z,57.36
2022-10-04T22:59:37.013Z,57.58
2022-10-04T23:02:12.594Z,58.23
2022-10-04T23:04:42.102Z,58.00
2022-10-04T23:07:11.597Z,57.88
2022-10-04T23:09:39.708Z,58.62
2022-10-04T23:12:09.458Z,58.15
2022-10-04T23:14:38.514Z,57.40
2022-10-04T23:17:21.713Z,57.96
2022-10-04T23:19:50.301Z,58.01
2022-10-04T23:22:28.949Z,59.10
2022-10-04T23:24:57.841Z,58.25
2022-10-04T23:27:25.921Z,58.98
2022-10-04T23:29:59.016Z,58.14
2022-10-04T23:32:28.202Z,58.25
2022-10-04T23:34:57.132Z,58.80
2022-10-04T23:37:28.709Z,58.90
2022-10-04T23:39:56.715Z,59.17
2022-10-04T23:42:29.856Z,58.86
2022-10-04T23:44:59.322Z,58.76
2022-10-04T23:47:33.517Z,58.14
2022-10-04T23:50:02.158Z,58.03
2022-10-04T23:52:37.287Z,58.66
2022-10-04T23:55:17.568Z,59.11
2022-10-04T23:57:46.198Z,58.40
